Time;durP1;ratioP1;P1;durP2;ratioP2;P2;SDS_P1;SDS_P2;PMS_P1;PMS_P2;Temp;Humidity;BMP_temperature;BMP_pressure;BME280_temperature;BME280_humidity;BME280_pressure;Samples;Min_cycle;Max_cycle;Signal;HPM_P1;HPM_P2
2023/02/11 00:01:11;;;;;;;;;;;;;;;-3.65;59.49;101601.91;5091203;28;20016;-41
2023/02/11 00:03:37;;;;;;;;;;;;;;;-3.23;59.12;101606.13;5091507;28;19923;-41
2023/02/11 00:06:04;;;;;;;;;;;;;;;-3.55;58.80;101607.56;5091036;28;20252;-41
2023/02/11 00:08:29;;;;;;;;;;;;;;;-3.52;59.61;101610.03;5091045;28;19912;-40
2023/02/11 00:10:55;;;;;;;;;;;;;;;-3.49;58.44;101606.44;5091101;28;19923;-40
2023/02/11 00:13:21;;;;;;;;;;;;;;;-3.38;58.04;101607.66;5090849;28;19916;-40
2023/02/11 00:15:46;;;;;;;;;;;;;;;-3.17;57.42;101616.25;5091541;28;20386;-42
2023/02/11 00:18:11;;;;;;;;;;;;;;;-3.15;55.37;101606.63;5093683;28;20303;-41
2023/02/11 00:20:40;;;;;;;;;;;;;;;-3.04;56.50;101610.50;5095287;28;19912;-41
2023/02/11 00:23:05;;;;;;;;;;;;;;;-2.84;55.13;101602.59;5094817;28;20006;-41
2023/02/11 00:25:30;;;;;;;;;;;;;;;-3.16;56.56;101602.34;5094988;28;20420;-42
2023/02/11 00:27:56;;;;;;;;;;;;;;;-3.18;57.08;101608.50;5095145;28;20366;-42
2023/02/11 00:30:21;;;;;;;;;;;;;;;-3.23;57.29;101607.88;5095119;28;19949;-42
2023/02/11 00:32:46;;;;;;;;;;;;;;;-3.48;56.44;101611.59;5094670;28;20375;-42
2023/02/11 00:35:12;;;;;;;;;;;;;;;-3.48;58.13;101610.72;5094873;28;20042;-40
2023/02/11 00:37:37;;;;;;;;;;;;;;;-3.34;58.39;101605.75;5094584;28;19935;-41
2023/02/11 00:40:03;;;;;;;;;;;;;;;-3.59;57.58;101599.03;5094843;28;20383;-41
2023/02/11 00:42:28;;;;;;;;;;;;;;;-3.66;58.33;101607.16;5094961;28;19916;-41
2023/02/11 00:44:54;;;;;;;;;;;;;;;-3.76;59.50;101607.56;5094328;28;20270;-41
2023/02/11 00:47:19;;;;;;;;;;;;;;;-3.56;57.62;101611.91;5094237;28;19908;-41
2023/02/11 00:49:44;;;;;;;;;;;;;;;-3.62;58.78;101606.13;5094135;28;19920;-41
2023/02/11 00:52:09;;;;;;;;;;;;;;;-3.67;59.94;101606.31;5094061;28;20380;-42
2023/02/11 00:54:35;;;;;;;;;;;;;;;-3.58;58.97;101608.53;5094054;28;20018;-42
2023/02/11 00:57:00;;;;;;;;;;;;;;;-3.80;58.33;101600.78;5094202;28;19912;-42
2023/02/11 00:59:26;;;;;;;;;;;;;;;-3.78;58.90;101600.75;5093862;28;20408;-42
2023/02/11 01:01:51;;;;;;;;;;;;;;;-3.75;58.27;101604.06;5094401;28;19912;-42
2023/02/11 01:04:16;;;;;;;;;;;;;;;-3.74;59.70;101599.69;5094068;28;19961;-41
2023/02/11 01:06:41;;;;;;;;;;;;;;;-3.80;58.22;101602.56;5093940;28;20336;-41
2023/02/11 01:09:07;;;;;;;;;;;;;;;-3.93;60.13;101592.66;5093918;28;20445;-41
2023/02/11 01:11:32;;;;;;;;;;;;;;;-3.83;60.85;101595.72;5093789;28;20352;-41
2023/02/11 01:13:57;;;;;;;;;;;;;;;-3.72;59.28;101587.47;5093948;28;19920;-40
2023/02/11 01:16:23;;;;;;;;;;;;;;;-3.58;59.70;101599.88;5093863;28;19912;-42
2023/02/11 01:18:48;;;;;;;;;;;;;;;-3.63;59.35;101594.03;5093980;28;19919;-40
2023/02/11 01:21:13;;;;;;;;;;;;;;;-3.59;58.06;101591.22;5093739;28;19939;-41
2023/02/11 01:23:39;;;;;;;;;;;;;;;-3.53;59.22;101585.75;5093681;28;19919;-41
2023/02/11 01:26:04;;;;;;;;;;;;;;;-3.61;58.32;101580.03;5093763;28;19923;-41
2023/02/11 01:28:30;;;;;;;;;;;;;;;-3.47;57.93;101576.81;5093111;28;19912;-41
2023/02/11 01:30:56;;;;;;;;;;;;;;;-3.40;58.86;101575.63;5093413;28;19912;-41
2023/02/11 01:33:21;;;;;;;;;;;;;;;-3.30;58.07;101570.00;5093329;28;19962;-41
2023/02/11 01:35:47;;;;;;;;;;;;;;;-3.38;57.47;101581.63;5093480;28;19920;-41
2023/02/11 01:38:22;;;;;;;;;;;;;;;-3.53;59.20;101572.72;5093155;28;19919;-41
2023/02/11 01:40:55;;;;;;;;;;;;;;;-3.53;57.44;101564.06;5093348;28;20031;-41
2023/02/11 01:43:21;;;;;;;;;;;;;;;-3.59;59.32;101561.75;5093580;28;19954;-40
2023/02/11 01:45:47;;;;;;;;;;;;;;;-3.68;58.62;101556.94;5093323;28;20015;-41
2023/02/11 01:48:14;;;;;;;;;;;;;;;-3.63;58.44;101555.84;5093474;28;20068;-42
2023/02/11 01:50:40;;;;;;;;;;;;;;;-3.58;57.88;101556.47;5093087;28;19919;-41
2023/02/11 01:58:37;;;;;;;;;;;;;;;-3.39;56.67;101558.25;5093413;28;19919;-42
2023/02/11 02:01:03;;;;;;;;;;;;;;;-3.45;58.48;101553.31;5093154;28;19946;-42
2023/02/11 02:03:30;;;;;;;;;;;;;;;-3.41;58.42;101562.69;5093366;28;19947;-42
2023/02/11 02:06:05;;;;;;;;;;;;;;;-3.23;58.20;101559.25;5093080;28;20036;-42
2023/02/11 02:08:34;;;;;;;;;;;;;;;-3.31;58.81;101555.28;5093242;28;19919;-41
2023/02/11 02:10:59;;;;;;;;;;;;;;;-3.24;57.49;101552.34;5093165;28;19912;-42
2023/02/11 02:13:26;;;;;;;;;;;;;;;-3.35;57.82;101550.25;5092640;28;20313;-42
2023/02/11 02:16:02;;;;;;;;;;;;;;;-3.41;58.74;101541.84;5093023;28;19912;-42
2023/02/11 02:18:27;;;;;;;;;;;;;;;-3.64;58.30;101548.09;5092726;28;19935;-42
2023/02/11 02:20:55;;;;;;;;;;;;;;;-3.82;59.01;101549.75;5092590;28;20292;-41
2023/02/11 02:23:33;;;;;;;;;;;;;;;-3.83;58.73;101537.63;5092710;28;20002;-41
2023/02/11 02:26:18;;;;;;;;;;;;;;;-3.75;59.54;101543.34;5092091;28;19912;-41
2023/02/11 02:28:52;;;;;;;;;;;;;;;-3.26;57.31;101546.34;5091998;28;20239;-41
2023/02/11 02:31:28;;;;;;;;;;;;;;;-3.45;58.79;101556.75;5091594;28;19912;-42
2023/02/11 02:34:01;;;;;;;;;;;;;;;-3.59;57.96;101549.56;5092553;28;19912;-41
2023/02/11 02:36:33;;;;;;;;;;;;;;;-3.85;57.88;101555.06;5092238;28;20395;-41
2023/02/11 02:39:03;;;;;;;;;;;;;;;-3.91;59.09;101565.75;5092674;28;20103;-41
2023/02/11 02:41:32;;;;;;;;;;;;;;;-3.74;58.80;101565.88;5091368;28;20000;-41
2023/02/11 02:43:58;;;;;;;;;;;;;;;-4.19;59.71;101566.91;5092172;28;19916;-41
2023/02/11 02:46:25;;;;;;;;;;;;;;;-4.25;59.76;101567.16;5092189;28;19912;-41
2023/02/11 02:48:54;;;;;;;;;;;;;;;-4.13;60.99;101567.50;5092376;28;19957;-41
2023/02/11 02:51:22;;;;;;;;;;;;;;;-4.24;59.98;101574.06;5092040;28;20261;-41
2023/02/11 02:54:04;;;;;;;;;;;;;;;-4.40;62.13;101579.91;5091749;28;19912;-41
2023/02/11 02:56:38;;;;;;;;;;;;;;;-4.55;61.31;101542.38;5092323;28;19912;-41
2023/02/11 02:59:03;;;;;;;;;;;;;;;-4.49;61.80;101574.19;5092177;28;19935;-41
2023/02/11 03:01:32;;;;;;;;;;;;;;;-4.15;60.88;101579.72;5091735;28;20275;-41
2023/02/11 03:03:57;;;;;;;;;;;;;;;-4.21;60.74;101572.16;5092028;28;19919;-41
2023/02/11 03:06:28;;;;;;;;;;;;;;;-4.65;61.90;101561.81;5091615;28;19913;-40
2023/02/11 03:09:04;;;;;;;;;;;;;;;-4.53;62.25;101556.16;5091574;28;19912;-41
2023/02/11 03:11:30;;;;;;;;;;;;;;;-4.41;60.71;101570.41;5091540;28;19977;-41
2023/02/11 03:13:56;;;;;;;;;;;;;;;-4.40;60.96;101571.22;5091779;28;20313;-41
2023/02/11 03:16:24;;;;;;;;;;;;;;;-4.37;60.46;101573.72;5091735;28;19951;-41
2023/02/11 03:18:52;;;;;;;;;;;;;;;-4.63;60.47;101569.56;5091593;28;20429;-41
2023/02/11 03:21:19;;;;;;;;;;;;;;;-4.35;60.02;101564.94;5091427;28;19985;-43
2023/02/11 03:23:52;;;;;;;;;;;;;;;-4.63;60.92;101567.81;5091854;28;19946;-41
2023/02/11 03:26:29;;;;;;;;;;;;;;;-4.72;60.99;101563.00;5091594;28;19912;-41
2023/02/11 03:28:59;;;;;;;;;;;;;;;-4.67;62.53;101557.59;5091381;28;19966;-41
2023/02/11 03:31:43;;;;;;;;;;;;;;;-4.60;62.21;101567.69;5091619;28;19971;-41
2023/02/11 03:34:15;;;;;;;;;;;;;;;-4.92;62.95;101562.00;5091595;28;19920;-41
2023/02/11 03:36:44;;;;;;;;;;;;;;;-5.17;63.61;101571.66;5091356;28;19944;-42
2023/02/11 03:39:11;;;;;;;;;;;;;;;-5.12;63.78;101567.13;5091066;28;19912;-42
2023/02/11 03:41:38;;;;;;;;;;;;;;;-5.05;63.41;101567.75;5091401;28;19916;-42
2023/02/11 03:44:05;;;;;;;;;;;;;;;-4.93;63.23;101569.84;5091304;28;19923;-42
2023/02/11 03:46:33;;;;;;;;;;;;;;;-4.62;62.27;101577.31;5091505;28;19912;-42
2023/02/11 03:49:01;;;;;;;;;;;;;;;-4.57;62.08;101569.31;5091128;28;20671;-41
2023/02/11 03:51:28;;;;;;;;;;;;;;;-4.67;63.77;101570.59;5091445;28;19970;-41
2023/02/11 03:53:55;;;;;;;;;;;;;;;-4.92;63.81;101568.97;5095319;28;19939;-41
2023/02/11 03:56:23;;;;;;;;;;;;;;;-4.93;64.60;101564.66;5095393;28;19923;-41
2023/02/11 03:58:48;;;;;;;;;;;;;;;-4.98;64.97;101570.03;5095077;28;19908;-42
2023/02/11 04:01:14;;;;;;;;;;;;;;;-5.08;64.92;101566.13;5095434;28;20283;-41
2023/02/11 04:03:39;;;;;;;;;;;;;;;-4.96;64.64;101570.00;5095178;28;20030;-41
2023/02/11 04:06:05;;;;;;;;;;;;;;;-4.84;63.67;101568.66;5095159;28;19973;-42
2023/02/11 04:08:30;;;;;;;;;;;;;;;-4.96;63.46;101560.44;5095317;28;19908;-40
2023/02/11 04:10:56;;;;;;;;;;;;;;;-4.92;63.85;101568.97;5095082;28;19912;-41
2023/02/11 04:13:21;;;;;;;;;;;;;;;-4.92;63.73;101568.97;5095077;28;19926;-41
2023/02/11 04:15:46;;;;;;;;;;;;;;;-5.10;65.32;101570.53;5095001;28;19912;-42
2023/02/11 04:18:12;;;;;;;;;;;;;;;-5.17;66.04;101569.06;5095067;28;19923;-41
2023/02/11 04:20:37;;;;;;;;;;;;;;;-4.98;64.72;101561.41;5095528;28;20006;-41
2023/02/11 04:23:02;;;;;;;;;;;;;;;-5.05;64.82;101567.75;5094994;28;19920;-41
2023/02/11 04:25:28;;;;;;;;;;;;;;;-4.71;64.30;101560.31;5095170;28;19915;-41
2023/02/11 04:27:53;;;;;;;;;;;;;;;-4.35;63.76;101562.34;5094924;28;20486;-41
2023/02/11 04:30:18;;;;;;;;;;;;;;;-4.49;62.21;101564.69;5094952;28;19912;-41
2023/02/11 04:32:43;;;;;;;;;;;;;;;-4.43;63.00;101558.38;5094424;28;19916;-41
2023/02/11 04:35:09;;;;;;;;;;;;;;;-4.72;63.39;101552.59;5095004;28;19951;-41
2023/02/11 04:37:34;;;;;;;;;;;;;;;-4.89;63.94;101552.41;5094747;28;20426;-42
2023/02/11 04:40:00;;;;;;;;;;;;;;;-4.96;63.44;101555.25;5094587;28;20444;-42
2023/02/11 04:42:25;;;;;;;;;;;;;;;-5.01;64.27;101556.31;5094956;28;19969;-41
2023/02/11 04:44:50;;;;;;;;;;;;;;;-4.99;64.85;101544.13;5094439;28;19951;-41
2023/02/11 04:47:15;;;;;;;;;;;;;;;-5.09;64.06;101550.59;5094362;28;19912;-40
2023/02/11 04:49:41;;;;;;;;;;;;;;;-5.31;65.05;101564.38;5094378;28;19977;-41
2023/02/11 04:52:07;;;;;;;;;;;;;;;-5.38;65.32;101558.56;5094617;28;19916;-40
2023/02/11 04:54:32;;;;;;;;;;;;;;;-5.11;64.60;101548.88;5094460;28;19969;-40
2023/02/11 04:56:57;;;;;;;;;;;;;;;-5.02;64.75;101550.28;5094137;28;19912;-40
2023/02/11 04:59:23;;;;;;;;;;;;;;;-5.04;64.35;101551.25;5093271;28;19908;-41
2023/02/11 05:01:48;;;;;;;;;;;;;;;-5.06;64.40;101556.50;5094386;28;20041;-35
2023/02/11 05:04:14;;;;;;;;;;;;;;;-5.04;64.14;101546.06;5092647;28;20315;-36
2023/02/11 05:06:39;;;;;;;;;;;;;;;-5.34;65.17;101543.72;5094401;28;20126;-35
2023/02/11 05:09:04;;;;;;;;;;;;;;;-5.13;65.82;101540.31;5094290;28;19959;-36
2023/02/11 05:11:30;;;;;;;;;;;;;;;-5.40;65.18;101546.56;5086446;28;19939;-36
2023/02/11 05:13:55;;;;;;;;;;;;;;;-4.99;66.09;101538.94;5076725;28;20037;-35
2023/02/11 05:16:20;;;;;;;;;;;;;;;-5.09;65.18;101535.00;5092629;28;19966;-36
2023/02/11 05:18:46;;;;;;;;;;;;;;;-5.02;63.90;101539.06;5093856;28;20383;-35
2023/02/11 05:21:13;;;;;;;;;;;;;;;-4.74;63.43;101534.47;5085691;28;19921;-35
2023/02/11 05:23:39;;;;;;;;;;;;;;;-4.52;63.57;101542.22;5092064;28;19916;-35
2023/02/11 05:26:04;;;;;;;;;;;;;;;-4.46;62.73;101542.91;5093642;28;20280;-35
2023/02/11 05:28:30;;;;;;;;;;;;;;;-4.43;62.92;101542.78;5093601;28;19912;-35
2023/02/11 05:30:55;;;;;;;;;;;;;;;-4.42;63.83;101545.28;5093329;28;19985;-36
2023/02/11 05:33:21;;;;;;;;;;;;;;;-4.46;62.21;101542.91;5093404;28;19915;-35
2023/02/11 05:35:46;;;;;;;;;;;;;;;-4.50;62.46;101556.94;5089407;28;19921;-34
2023/02/11 05:38:11;;;;;;;;;;;;;;;-4.50;61.45;101552.56;5105708;28;19935;-36
2023/02/11 05:40:36;;;;;;;;;;;;;;;-4.81;61.76;101553.81;5105313;28;19912;-36
2023/02/11 05:43:02;;;;;;;;;;;;;;;-4.78;61.71;101550.22;5089776;28;19924;-34
2023/02/11 05:45:27;;;;;;;;;;;;;;;-4.52;61.32;101551.78;5093234;28;20275;-36
2023/02/11 05:47:52;;;;;;;;;;;;;;;-4.28;61.27;101554.28;5093207;28;19991;-36
2023/02/11 05:50:18;;;;;;;;;;;;;;;-3.89;60.99;101556.97;5092854;28;19950;-35
2023/02/11 05:52:43;;;;;;;;;;;;;;;-4.01;61.60;101554.91;5093069;28;19973;-35
2023/02/11 05:55:09;;;;;;;;;;;;;;;-3.13;59.65;101561.44;5095856;28;19912;-35
2023/02/11 05:57:34;;;;;;;;;;;;;;;-2.85;57.46;101561.00;5093289;28;19912;-37
2023/02/11 05:59:59;;;;;;;;;;;;;;;-2.73;57.22;101570.00;5096015;28;19916;-36
2023/02/11 06:02:24;;;;;;;;;;;;;;;-2.54;56.64;101569.94;5087652;28;20030;-36
2023/02/11 06:04:50;;;;;;;;;;;;;;;-2.53;55.98;101569.00;5082943;28;20007;-36
2023/02/11 06:07:16;;;;;;;;;;;;;;;-2.34;56.32;101558.53;5073004;28;20457;-35
2023/02/11 06:09:41;;;;;;;;;;;;;;;-1.84;54.53;101565.59;5072666;28;20441;-36
2023/02/11 06:12:07;;;;;;;;;;;;;;;-1.72;54.24;101571.94;5072925;28;19916;-36
2023/02/11 06:14:33;;;;;;;;;;;;;;;-1.73;53.57;101568.50;5072260;28;20279;-35
2023/02/11 06:16:58;;;;;;;;;;;;;;;-1.54;52.63;101555.31;5090264;28;20011;-35
2023/02/11 06:19:23;;;;;;;;;;;;;;;-1.76;53.08;101571.25;5092665;28;19966;-35
2023/02/11 06:21:49;;;;;;;;;;;;;;;-1.52;51.97;101565.66;5092505;28;19920;-35
2023/02/11 06:24:14;;;;;;;;;;;;;;;-1.10;53.37;101574.78;5092550;28;19943;-36
2023/02/11 06:26:39;;;;;;;;;;;;;;;-0.89;51.02;101557.91;5093221;28;19916;-35
2023/02/11 06:29:04;;;;;;;;;;;;;;;-0.48;49.80;101561.72;5092547;28;19943;-35
2023/02/11 06:31:30;;;;;;;;;;;;;;;-0.80;50.16;101562.63;5092715;28;19912;-36
2023/02/11 06:33:55;;;;;;;;;;;;;;;-0.69;50.27;101567.22;5092109;28;19915;-35
2023/02/11 06:36:21;;;;;;;;;;;;;;;-0.24;49.41;101569.94;5092726;28;19911;-35
2023/02/11 06:38:47;;;;;;;;;;;;;;;0.03;48.64;101570.09;5092095;28;19912;-35
2023/02/11 06:41:13;;;;;;;;;;;;;;;0.02;48.25;101568.44;5091087;28;19919;-41
2023/02/11 06:43:39;;;;;;;;;;;;;;;0.09;49.65;101566.28;5092141;28;20277;-41
2023/02/11 06:46:04;;;;;;;;;;;;;;;0.40;48.02;101560.06;5083404;28;19912;-42
2023/02/11 06:48:30;;;;;;;;;;;;;;;0.65;47.09;101558.53;5071017;28;20261;-42
2023/02/11 06:50:55;;;;;;;;;;;;;;;0.96;46.52;101560.09;5070742;28;20088;-41
2023/02/11 06:53:20;;;;;;;;;;;;;;;1.54;44.40;101558.13;5070821;28;19916;-42
2023/02/11 06:55:45;;;;;;;;;;;;;;;2.54;43.21;101554.00;5070963;28;19958;-42
2023/02/11 06:58:11;;;;;;;;;;;;;;;2.30;45.87;101551.28;5071169;28;20329;-42
2023/02/11 07:00:36;;;;;;;;;;;;;;;2.49;43.39;101558.75;5070882;28;19912;-42
2023/02/11 07:03:01;;;;;;;;;;;;;;;2.77;42.12;101551.56;5070949;28;20349;-41
2023/02/11 07:05:27;;;;;;;;;;;;;;;3.03;40.47;101553.19;5070743;28;19970;-42
2023/02/11 07:07:52;;;;;;;;;;;;;;;3.13;50.31;101553.34;5085132;28;20360;-41
2023/02/11 07:10:17;;;;;;;;;;;;;;;3.09;41.10;101544.84;5089165;28;19916;-42
2023/02/11 07:12:43;;;;;;;;;;;;;;;3.01;40.79;101539.28;5082556;28;20375;-42
2023/02/11 07:15:08;;;;;;;;;;;;;;;3.07;40.48;101538.84;5090601;28;19922;-42
2023/02/11 07:17:34;;;;;;;;;;;;;;;3.09;40.47;101544.00;5090134;28;19916;-41
2023/02/11 07:19:59;;;;;;;;;;;;;;;3.15;40.57;101540.09;5078508;28;19916;-41
2023/02/11 07:22:25;;;;;;;;;;;;;;;3.18;39.94;101542.47;5073001;28;19924;-36
2023/02/11 07:24:50;;;;;;;;;;;;;;;3.30;40.01;101547.69;5069666;28;19913;-36
2023/02/11 07:27:15;;;;;;;;;;;;;;;3.49;39.76;101546.34;5068096;28;20346;-36
2023/02/11 07:29:41;;;;;;;;;;;;;;;3.62;39.33;101539.22;5081539;28;19927;-38
2023/02/11 07:32:06;;;;;;;;;;;;;;;3.77;38.81;101533.75;5083047;28;20261;-37
2023/02/11 07:34:31;;;;;;;;;;;;;;;4.00;38.50;101530.22;5090395;28;19994;-36
2023/02/11 07:36:57;;;;;;;;;;;;;;;4.02;38.32;101535.38;5090367;28;20003;-35
2023/02/11 07:39:26;;;;;;;;;;;;;;;4.19;37.66;101529.66;5080907;28;20478;-36
2023/02/11 07:41:51;;;;;;;;;;;;;;;4.06;37.78;101539.47;5068402;28;20137;-37
2023/02/11 07:44:16;;;;;;;;;;;;;;;4.62;37.79;101536.84;5068750;28;20142;-36
2023/02/11 07:46:43;;;;;;;;;;;;;;;4.42;37.88;101530.50;5068703;28;19919;-37
2023/02/11 07:49:09;;;;;;;;;;;;;;;4.29;37.19;101527.16;5069059;28;20384;-36
2023/02/11 07:51:34;;;;;;;;;;;;;;;4.44;36.68;101525.94;5069363;28;20011;-36
2023/02/11 07:54:00;;;;;;;;;;;;;;;4.79;36.23;101527.59;5070257;28;19944;-36
2023/02/11 07:56:26;;;;;;;;;;;;;;;5.52;34.53;101519.09;5070354;28;19966;-36
2023/02/11 07:58:51;;;;;;;;;;;;;;;5.47;34.19;101536.16;5070271;28;19978;-37
2023/02/11 08:01:18;;;;;;;;;;;;;;;5.89;33.82;101530.09;5070081;28;20350;-37
2023/02/11 08:03:43;;;;;;;;;;;;;;;5.88;33.50;101521.31;5070224;28;19912;-36
2023/02/11 08:06:11;;;;;;;;;;;;;;;5.65;34.31;101525.91;5069957;28;19912;-37
2023/02/11 08:08:36;;;;;;;;;;;;;;;5.61;34.60;101526.25;5069681;28;19917;-36
2023/02/11 08:11:06;;;;;;;;;;;;;;;5.48;34.50;101519.38;5069938;28;19912;-36
2023/02/11 08:13:32;;;;;;;;;;;;;;;5.35;34.91;101521.34;5069858;28;19916;-36
2023/02/11 08:15:57;;;;;;;;;;;;;;;5.21;35.77;101519.81;5069304;28;19920;-36
2023/02/11 08:18:22;;;;;;;;;;;;;;;5.97;34.10;101517.06;5069693;28;19999;-37
2023/02/11 08:20:48;;;;;;;;;;;;;;;6.23;33.81;101514.88;5077804;28;19919;-37
2023/02/11 08:23:13;;;;;;;;;;;;;;;5.96;34.42;101506.63;5087531;28;20637;-37
2023/02/11 08:25:39;;;;;;;;;;;;;;;5.73;34.94;101506.75;5090234;28;20019;-36
2023/02/11 08:28:04;;;;;;;;;;;;;;;5.56;35.52;101507.31;5090177;28;19919;-37
2023/02/11 08:30:29;;;;;;;;;;;;;;;5.21;36.00;101497.88;5089699;28;19912;-36
2023/02/11 08:32:55;;;;;;;;;;;;;;;4.97;36.50;101491.00;5089807;28;19919;-37
2023/02/11 08:35:20;;;;;;;;;;;;;;;5.11;36.38;101494.31;5090265;28;20386;-37
2023/02/11 08:37:46;;;;;;;;;;;;;;;5.86;35.75;101496.84;5090053;28;19920;-37
2023/02/11 08:40:11;;;;;;;;;;;;;;;5.88;35.65;101499.31;5093728;28;19912;-36
2023/02/11 08:42:36;;;;;;;;;;;;;;;6.18;35.03;101492.44;5094073;28;20014;-36
2023/02/11 08:45:03;;;;;;;;;;;;;;;5.93;35.34;101480.47;5094045;28;19989;-37
2023/02/11 08:47:30;;;;;;;;;;;;;;;5.94;35.50;101487.41;5093788;28;20612;-36
2023/02/11 08:49:55;;;;;;;;;;;;;;;6.06;35.18;101475.81;5093943;28;20006;-36
2023/02/11 08:52:20;;;;;;;;;;;;;;;5.23;36.89;101480.94;5093309;28;20340;-36
2023/02/11 08:54:46;;;;;;;;;;;;;;;5.95;36.17;101482.03;5093697;28;19916;-37
2023/02/11 08:57:11;;;;;;;;;;;;;;;6.51;34.99;101488.69;5094063;28;19934;-36
2023/02/11 08:59:38;;;;;;;;;;;;;;;6.57;34.54;101474.91;5093623;28;19920;-36
2023/02/11 09:02:04;;;;;;;;;;;;;;;6.72;35.10;101472.72;5093844;28;20357;-36
2023/02/11 09:04:29;;;;;;;;;;;;;;;6.29;36.02;101470.38;5092974;28;20372;-36
2023/02/11 09:06:54;;;;;;;;;;;;;;;6.70;34.74;101463.22;5093411;28;19973;-36
2023/02/11 09:09:20;;;;;;;;;;;;;;;7.05;34.58;101465.38;5093526;28;19965;-37
2023/02/11 09:11:45;;;;;;;;;;;;;;;7.35;34.61;101459.13;5093182;28;19982;-36
2023/02/11 09:14:18;;;;;;;;;;;;;;;7.02;34.45;101463.00;5093592;28;19949;-35
2023/02/11 09:16:43;;;;;;;;;;;;;;;7.19;33.78;101456.19;5093023;28;20096;-36
2023/02/11 09:19:09;;;;;;;;;;;;;;;7.28;34.07;101457.16;5093069;28;19939;-35
2023/02/11 09:21:34;;;;;;;;;;;;;;;7.28;32.56;101452.69;5092816;28;19920;-35
2023/02/11 09:24:00;;;;;;;;;;;;;;;6.88;33.61;101450.19;5093076;28;19912;-36
2023/02/11 09:26:30;;;;;;;;;;;;;;;6.98;33.35;101451.03;5092743;28;19916;-36
2023/02/11 09:28:55;;;;;;;;;;;;;;;8.12;32.29;101451.13;5092693;28;19947;-36
2023/02/11 09:31:22;;;;;;;;;;;;;;;8.20;31.69;101441.44;5093056;28;19967;-36
2023/02/11 09:33:49;;;;;;;;;;;;;;;7.48;32.52;101442.06;5092889;28;19944;-36
2023/02/11 09:36:15;;;;;;;;;;;;;;;8.33;31.82;101440.28;5092975;28;19913;-35
2023/02/11 09:38:41;;;;;;;;;;;;;;;8.65;31.11;101439.03;5092735;28;19934;-36
2023/02/11 09:41:23;;;;;;;;;;;;;;;7.98;31.93;101436.53;5093077;28;19916;-36
2023/02/11 09:43:55;;;;;;;;;;;;;;;8.05;31.70;101426.16;5092855;28;19916;-36
2023/02/11 09:46:22;;;;;;;;;;;;;;;7.74;32.00;101421.94;5092742;28;19912;-36
2023/02/11 09:48:49;;;;;;;;;;;;;;;6.61;34.03;101415.47;5092370;28;19919;-36
2023/02/11 09:51:31;;;;;;;;;;;;;;;7.40;33.34;101417.13;5092192;28;19911;-36
2023/02/11 09:53:59;;;;;;;;;;;;;;;8.04;32.03;101406.78;5092342;28;20039;-36
2023/02/11 09:56:26;;;;;;;;;;;;;;;7.86;32.37;101401.38;5092044;28;19912;-36
2023/02/11 09:58:51;;;;;;;;;;;;;;;7.95;31.81;101397.03;5092397;28;19969;-36
2023/02/11 10:01:35;;;;;;;;;;;;;;;7.01;32.72;101388.06;5092340;28;20558;-37
2023/02/11 10:04:01;;;;;;;;;;;;;;;7.14;44.22;101379.84;5091952;28;19913;-35
2023/02/11 10:06:38;;;;;;;;;;;;;;;7.61;33.30;101376.38;5092162;28;19991;-36
2023/02/11 10:09:04;;;;;;;;;;;;;;;7.67;33.05;101369.66;5093167;28;19989;-35
2023/02/11 10:11:36;;;;;;;;;;;;;;;7.74;33.10;101365.47;5097710;28;20372;-34
2023/02/11 10:14:20;;;;;;;;;;;;;;;7.58;33.04;101347.53;5091817;28;20040;-37
2023/02/11 10:16:54;;;;;;;;;;;;;;;7.31;33.70;101346.50;5091893;28;19912;-35
2023/02/11 10:19:34;;;;;;;;;;;;;;;7.11;33.73;101344.84;5091979;28;19913;-37
2023/02/11 10:22:03;;;;;;;;;;;;;;;7.44;32.93;101341.72;5087871;28;19978;-36
2023/02/11 10:24:28;;;;;;;;;;;;;;;7.46;33.35;101332.78;5091528;28;19912;-37
2023/02/11 10:26:54;;;;;;;;;;;;;;;8.00;31.35;101317.91;5090998;28;19965;-38
2023/02/11 10:29:33;;;;;;;;;;;;;;;8.33;32.85;101328.88;5091693;28;20016;-36
2023/02/11 10:32:00;;;;;;;;;;;;;;;7.82;32.95;101312.56;5091703;28;19924;-41
2023/02/11 10:34:25;;;;;;;;;;;;;;;7.69;33.17;101304.97;5091920;28;19939;-41
2023/02/11 10:36:51;;;;;;;;;;;;;;;6.95;32.91;101301.28;5091885;28;19912;-42
2023/02/11 10:39:18;;;;;;;;;;;;;;;7.31;33.40;101296.19;5091945;28;19912;-41
2023/02/11 10:41:53;;;;;;;;;;;;;;;7.33;33.24;101294.22;5091197;28;19920;-41
2023/02/11 10:44:38;;;;;;;;;;;;;;;7.63;31.98;101284.31;5091292;28;19916;-42
2023/02/11 10:47:31;;;;;;;;;;;;;;;7.80;31.74;101277.41;5086904;28;19941;-42
2023/02/11 10:50:02;;;;;;;;;;;;;;;7.83;31.81;101282.44;5090323;28;19920;-41
2023/02/11 10:52:29;;;;;;;;;;;;;;;7.49;31.49;101258.34;5091120;28;20418;-41
2023/02/11 10:54:56;;;;;;;;;;;;;;;8.17;31.75;101264.06;5091186;28;19959;-41
2023/02/11 10:57:25;;;;;;;;;;;;;;;7.60;30.98;101234.28;5091365;28;19966;-41
2023/02/11 10:59:55;;;;;;;;;;;;;;;8.14;30.85;101252.94;5091534;28;19912;-42
2023/02/11 11:02:23;;;;;;;;;;;;;;;8.15;30.27;101254.59;5084440;28;19915;-41
2023/02/11 11:04:48;;;;;;;;;;;;;;;8.30;30.50;101246.94;5079594;28;19969;-41
2023/02/11 11:07:17;;;;;;;;;;;;;;;8.66;30.88;101245.09;5080314;28;20299;-42
2023/02/11 11:09:50;;;;;;;;;;;;;;;7.56;31.22;101232.94;5077896;28;19961;-41
2023/02/11 11:12:30;;;;;;;;;;;;;;;7.99;30.15;101236.69;5080650;28;20355;-41
2023/02/11 11:15:00;;;;;;;;;;;;;;;8.18;29.65;101225.13;5080535;28;19916;-41
2023/02/11 11:17:28;;;;;;;;;;;;;;;8.22;29.83;101222.03;5078943;28;19920;-41
2023/02/11 11:20:13;;;;;;;;;;;;;;;8.40;29.63;101218.53;5084428;28;19916;-41
2023/02/11 11:22:40;;;;;;;;;;;;;;;8.17;29.66;101216.34;5079650;28;20268;-41
2023/02/11 11:25:19;;;;;;;;;;;;;;;7.84;29.74;101207.22;5087533;28;20003;-42
2023/02/11 11:27:47;;;;;;;;;;;;;;;8.33;29.42;101199.72;5090750;28;19912;-42
2023/02/11 11:30:16;;;;;;;;;;;;;;;9.00;28.24;101201.88;5090663;28;20244;-41
2023/02/11 11:32:41;;;;;;;;;;;;;;;9.61;27.36;101193.81;5090806;28;20002;-42
2023/02/11 11:35:19;;;;;;;;;;;;;;;9.02;27.96;101194.56;5090609;28;19955;-41
2023/02/11 11:37:44;;;;;;;;;;;;;;;8.92;27.33;101189.38;5090801;28;19915;-42
2023/02/11 11:40:16;;;;;;;;;;;;;;;9.42;27.19;101179.81;5081417;28;19931;-41
2023/02/11 11:42:41;;;;;;;;;;;;;;;8.78;27.24;101177.53;5083013;28;20043;-42
2023/02/11 11:45:18;;;;;;;;;;;;;;;8.79;27.05;101170.38;5090460;28;19923;-41
2023/02/11 11:47:47;;;;;;;;;;;;;;;8.80;27.07;101166.75;5083872;28;19916;-42
2023/02/11 11:50:23;;;;;;;;;;;;;;;8.65;27.32;101157.72;5078951;28;19913;-41
2023/02/11 11:53:07;;;;;;;;;;;;;;;8.77;27.52;101157.28;5076558;28;19946;-42
2023/02/11 11:55:41;;;;;;;;;;;;;;;9.15;26.88;101143.69;5080815;28;19965;-42
2023/02/11 11:58:12;;;;;;;;;;;;;;;9.10;26.74;101143.31;5082186;28;19969;-41
2023/02/11 12:00:46;;;;;;;;;;;;;;;9.13;26.07;101143.03;5090368;28;19955;-42
2023/02/11 12:03:34;;;;;;;;;;;;;;;9.14;26.12;101140.22;5090618;28;19913;-42
2023/02/11 12:05:59;;;;;;;;;;;;;;;9.20;25.44;101136.91;5079605;28;20414;-41
2023/02/11 12:08:34;;;;;;;;;;;;;;;9.11;25.61;101126.41;5090357;28;19912;-41
2023/02/11 12:11:09;;;;;;;;;;;;;;;9.29;24.58;101121.84;5089887;28;19959;-40
2023/02/11 12:13:59;;;;;;;;;;;;;;;8.84;25.38;101122.97;5091259;28;19930;-42
2023/02/11 12:16:35;;;;;;;;;;;;;;;8.65;25.75;101109.94;5093332;28;19999;-42
2023/02/11 12:19:09;;;;;;;;;;;;;;;8.63;25.57;101109.28;5092755;28;19911;-42
2023/02/11 12:21:40;;;;;;;;;;;;;;;9.21;25.08;101111.16;5076480;28;20223;-43
2023/02/11 12:24:13;;;;;;;;;;;;;;;9.50;24.68;101102.78;5070518;28;20071;-41
2023/02/11 12:26:57;;;;;;;;;;;;;;;9.10;24.37;101100.84;5070896;28;19912;-42
2023/02/11 12:29:58;;;;;;;;;;;;;;;8.99;24.87;101101.97;5072380;28;19919;-42
2023/02/11 12:32:33;;;;;;;;;;;;;;;9.03;24.59;101097.19;5069502;28;19916;-41
2023/02/11 12:35:13;;;;;;;;;;;;;;;8.47;24.99;101089.59;5080066;28;19912;-41
2023/02/11 12:38:01;;;;;;;;;;;;;;;8.90;24.89;101093.13;5092584;28;19962;-41
2023/02/11 12:40:47;;;;;;;;;;;;;;;9.28;24.25;101088.28;5092921;28;19969;-41
2023/02/11 12:43:32;;;;;;;;;;;;;;;9.02;24.52;101088.34;5088982;28;19927;-42
2023/02/11 12:45:58;;;;;;;;;;;;;;;8.94;24.79;101089.16;5093156;28;20417;-42
2023/02/11 12:48:32;;;;;;;;;;;;;;;9.17;24.58;101088.59;5093007;28;19912;-42
2023/02/11 12:51:03;;;;;;;;;;;;;;;8.66;24.63;101077.09;5091484;28;20353;-42